createdAt,value
2023-02-19T00:03:52.309Z,6.06
2023-02-19T00:08:54.582Z,6.10
2023-02-19T00:14:02.506Z,6.08
2023-02-19T00:19:07.234Z,6.10
2023-02-19T00:24:11.911Z,6.14
2023-02-19T00:29:16.964Z,6.19
2023-02-19T00:34:24.513Z,6.23
2023-02-19T00:39:26.342Z,6.23
2023-02-19T00:44:28.085Z,6.21
2023-02-19T00:49:29.896Z,6.19
2023-02-19T00:54:31.594Z,6.15
2023-02-19T00:59:33.796Z,6.09
2023-02-19T01:04:35.688Z,6.04
2023-02-19T01:09:38.345Z,6.02
2023-02-19T01:14:40.097Z,6.02
2023-02-19T01:19:41.841Z,5.99
2023-02-19T01:24:43.584Z,5.92
2023-02-19T01:29:45.811Z,5.88
2023-02-19T01:34:51.507Z,5.87
2023-02-19T01:39:53.242Z,5.88
2023-02-19T01:45:32.283Z,5.90
2023-02-19T01:50:39.016Z,5.91
2023-02-19T01:55:42.493Z,5.91
2023-02-19T02:00:44.334Z,5.89
2023-02-19T02:06:06.830Z,5.87
2023-02-19T02:11:09.470Z,5.81
2023-02-19T02:16:47.034Z,5.78
2023-02-19T02:21:59.115Z,5.71
2023-02-19T02:27:07.358Z,5.65
2023-02-19T02:32:20.038Z,5.65
2023-02-19T02:37:25.392Z,5.63
2023-02-19T02:42:27.459Z,5.59
2023-02-19T02:47:41.961Z,5.64
2023-02-19T02:53:05.309Z,5.71
2023-02-19T02:58:09.275Z,5.79
2023-02-19T03:03:12.676Z,5.84
2023-02-19T03:08:21.416Z,5.89
2023-02-19T03:13:49.788Z,5.94
2023-02-19T03:19:14.112Z,5.97
2023-02-19T03:24:38.764Z,6.01
2023-02-19T03:29:45.893Z,6.05
2023-02-19T03:35:06.382Z,6.07
2023-02-19T03:40:09.181Z,6.09
2023-02-19T03:45:31.250Z,6.10
2023-02-19T03:50:50.101Z,6.09
2023-02-19T03:56:13.972Z,6.04
2023-02-19T04:01:27.413Z,6.00
2023-02-19T04:06:32.886Z,6.04
2023-02-19T04:11:36.806Z,6.05
2023-02-19T04:16:44.221Z,6.05
2023-02-19T04:21:47.072Z,6.11
2023-02-19T04:26:49.180Z,6.11
2023-02-19T04:31:51.087Z,6.10
2023-02-19T04:36:52.842Z,6.08
2023-02-19T04:41:54.567Z,6.04
2023-02-19T04:46:56.300Z,5.99
2023-02-19T04:51:58.094Z,5.94
2023-02-19T04:56:59.940Z,5.92
2023-02-19T05:02:01.635Z,5.90
2023-02-19T05:07:03.388Z,5.89
2023-02-19T05:12:05.242Z,5.91
2023-02-19T05:17:07.170Z,5.93
2023-02-19T05:22:08.882Z,5.95
2023-02-19T05:27:10.700Z,5.99
2023-02-19T05:32:12.686Z,6.02
2023-02-19T05:37:14.576Z,6.06
2023-02-19T05:42:16.274Z,6.08
2023-02-19T05:47:17.955Z,6.10
2023-02-19T05:52:19.668Z,6.07
2023-02-19T05:57:21.658Z,5.99
2023-02-19T06:02:23.504Z,5.92
2023-02-19T06:07:25.292Z,5.88
2023-02-19T06:12:27.310Z,5.87
2023-02-19T06:17:29.037Z,5.96
2023-02-19T06:22:30.706Z,6.09
2023-02-19T06:27:32.393Z,6.21
2023-02-19T06:32:34.068Z,6.24
2023-02-19T06:37:35.856Z,6.25
2023-02-19T06:42:37.682Z,6.26
2023-02-19T06:47:39.455Z,6.27
2023-02-19T06:52:41.199Z,6.27
2023-02-19T06:57:42.955Z,6.26
2023-02-19T07:02:44.776Z,6.26
2023-02-19T07:07:46.456Z,6.27
2023-02-19T07:12:48.207Z,6.30
2023-02-19T07:17:50.018Z,6.35
2023-02-19T07:22:51.813Z,6.42
2023-02-19T07:27:53.711Z,6.48
2023-02-19T07:32:55.398Z,6.52
2023-02-19T07:37:57.131Z,6.56
2023-02-19T07:43:00.601Z,6.62
2023-02-19T07:48:02.323Z,6.71
2023-02-19T07:53:04.222Z,6.77
2023-02-19T07:58:06.273Z,6.81
2023-02-19T08:03:08.292Z,6.84
2023-02-19T08:08:17.027Z,6.93
2023-02-19T08:13:19.280Z,7.04
2023-02-19T08:18:23.995Z,7.07
2023-02-19T08:23:27.052Z,7.12
2023-02-19T08:32:32.800Z,7.19
2023-02-19T08:37:33.873Z,7.05
2023-02-19T08:42:34.841Z,6.99
2023-02-19T08:47:35.983Z,6.90
2023-02-19T08:52:37.004Z,6.79
2023-02-19T08:57:38.042Z,6.72
2023-02-19T09:02:39.036Z,6.70
2023-02-19T09:07:40.903Z,6.66
2023-02-19T09:12:41.935Z,6.61
2023-02-19T09:17:43.001Z,6.60
2023-02-19T09:22:44.092Z,6.56
2023-02-19T09:27:45.153Z,6.46
2023-02-19T09:32:46.153Z,6.28
2023-02-19T09:37:47.191Z,6.13
2023-02-19T09:42:50.474Z,6.06
2023-02-19T09:47:57.227Z,5.99
2023-02-19T09:53:03.224Z,5.91
2023-02-19T09:58:29.238Z,5.90
2023-02-19T10:03:34.769Z,5.88
2023-02-19T10:08:37.246Z,5.85
2023-02-19T10:13:45.202Z,5.83
2023-02-19T10:18:46.805Z,5.89
2023-02-19T10:23:53.171Z,5.99
2023-02-19T10:28:54.883Z,5.92
2023-02-19T10:33:57.997Z,5.85
2023-02-19T10:39:01.027Z,5.90
2023-02-19T10:44:06.776Z,5.91
2023-02-19T10:49:42.742Z,6.07
2023-02-19T10:54:44.917Z,6.01
2023-02-19T10:59:56.968Z,6.00
2023-02-19T11:05:15.520Z,6.39
2023-02-19T11:10:27.567Z,6.52
2023-02-19T11:15:34.580Z,6.51
2023-02-19T11:20:35.835Z,6.31
2023-02-19T11:25:45.317Z,6.10
2023-02-19T11:30:47.426Z,5.95
2023-02-19T11:35:51.645Z,6.00
2023-02-19T11:41:22.300Z,5.88
2023-02-19T11:46:32.224Z,5.75
2023-02-19T11:51:52.316Z,5.50
2023-02-19T11:57:23.748Z,5.27
2023-02-19T12:02:43.684Z,5.21
2023-02-19T12:07:59.730Z,5.03
2023-02-19T12:13:13.038Z,4.98
2023-02-19T12:18:28.704Z,5.05
2023-02-19T12:24:06.980Z,4.91
2023-02-19T12:29:37.358Z,4.61
2023-02-19T12:34:44.735Z,4.40
2023-02-19T12:39:55.373Z,4.41
2023-02-19T12:45:02.000Z,4.28
2023-02-19T12:50:16.192Z,4.09
2023-02-19T12:55:26.402Z,3.88
2023-02-19T13:00:53.346Z,3.75
2023-02-19T13:06:15.874Z,3.64
2023-02-19T13:11:21.996Z,3.64
2023-02-19T13:16:25.260Z,3.66
2023-02-19T13:21:49.237Z,3.72
2023-02-19T13:26:59.572Z,3.66
2023-02-19T13:32:21.111Z,3.57
2023-02-19T13:37:25.397Z,3.44
2023-02-19T13:42:32.476Z,3.34
2023-02-19T13:47:58.911Z,3.31
2023-02-19T13:53:06.683Z,3.39
2023-02-19T13:58:33.091Z,3.31
2023-02-19T14:03:34.089Z,3.14
2023-02-19T14:08:52.233Z,3.03
2023-02-19T14:13:54.176Z,3.08
2023-02-19T14:18:55.839Z,3.25
2023-02-19T14:23:57.823Z,3.44
2023-02-19T14:29:00.935Z,3.55
2023-02-19T14:34:25.746Z,3.59
2023-02-19T14:39:39.638Z,3.55
2023-02-19T14:44:49.484Z,3.42
2023-02-19T14:49:54.738Z,3.34
2023-02-19T14:55:04.608Z,3.28
2023-02-19T15:00:21.355Z,3.25
2023-02-19T15:05:28.619Z,3.19
2023-02-19T15:10:31.765Z,3.08
2023-02-19T15:15:36.692Z,3.02
2023-02-19T15:20:37.848Z,2.98
2023-02-19T15:25:39.032Z,2.97
2023-02-19T15:30:40.268Z,2.96
2023-02-19T15:35:41.496Z,2.94
2023-02-19T15:40:46.576Z,2.89
2023-02-19T15:45:49.671Z,2.81
2023-02-19T15:50:58.833Z,2.73
2023-02-19T15:56:11.099Z,2.70
2023-02-19T16:01:19.906Z,2.70
2023-02-19T16:06:23.543Z,2.66
2023-02-19T16:11:27.620Z,2.60
2023-02-19T16:16:36.647Z,2.54
2023-02-19T16:21:38.213Z,2.46
2023-02-19T16:26:43.138Z,2.34
2023-02-19T16:31:49.950Z,2.29
2023-02-19T16:36:51.094Z,2.30
2023-02-19T16:41:52.109Z,2.32
2023-02-19T16:47:07.177Z,2.35
2023-02-19T16:52:14.093Z,2.39
2023-02-19T16:57:15.451Z,2.44
2023-02-19T17:02:21.755Z,2.48
2023-02-19T17:07:23.068Z,2.51
2023-02-19T17:12:24.094Z,2.52
2023-02-19T17:17:25.123Z,2.52
2023-02-19T17:22:26.182Z,2.51
2023-02-19T17:27:27.155Z,2.50
2023-02-19T17:32:28.386Z,2.49
2023-02-19T17:37:29.556Z,2.44
2023-02-19T17:42:30.716Z,2.35
2023-02-19T17:47:31.683Z,2.25
2023-02-19T17:52:33.443Z,2.17
2023-02-19T17:57:34.563Z,2.07
2023-02-19T18:02:35.870Z,1.92
2023-02-19T18:07:38.052Z,1.77
2023-02-19T18:12:39.726Z,1.65
2023-02-19T18:17:40.989Z,1.51
2023-02-19T18:22:42.786Z,1.40
2023-02-19T18:27:44.859Z,1.31
2023-02-19T18:32:49.499Z,1.25
2023-02-19T18:37:53.800Z,1.14
2023-02-19T18:42:55.249Z,1.02
2023-02-19T18:47:56.468Z,0.93
2023-02-19T18:52:57.549Z,0.85
2023-02-19T18:57:58.884Z,0.78
2023-02-19T19:02:59.994Z,0.72
2023-02-19T19:08:01.244Z,0.68
2023-02-19T19:13:02.327Z,0.59
2023-02-19T19:18:03.962Z,0.51
2023-02-19T19:23:05.715Z,0.43
2023-02-19T19:28:06.782Z,0.38
2023-02-19T19:33:07.840Z,0.33
2023-02-19T19:38:08.917Z,0.35
2023-02-19T19:43:10.043Z,0.42
2023-02-19T19:48:11.300Z,0.45
2023-02-19T19:53:12.464Z,0.46
2023-02-19T19:58:16.268Z,0.47
2023-02-19T20:03:18.369Z,0.47
2023-02-19T20:08:20.245Z,0.48
2023-02-19T20:13:26.113Z,0.53
2023-02-19T20:18:27.683Z,0.59
2023-02-19T20:23:29.251Z,0.64
2023-02-19T20:28:31.233Z,0.68
2023-02-19T20:33:34.388Z,0.72
2023-02-19T20:38:35.512Z,0.74
2023-02-19T20:43:36.766Z,0.73
2023-02-19T20:48:38.016Z,0.72
2023-02-19T20:53:46.830Z,0.69
2023-02-19T20:58:47.941Z,0.66
2023-02-19T21:03:50.553Z,0.64
2023-02-19T21:08:51.618Z,0.61
2023-02-19T21:13:52.946Z,0.59
2023-02-19T21:18:54.497Z,0.58
2023-02-19T21:23:56.482Z,0.56
2023-02-19T21:28:57.595Z,0.54
2023-02-19T21:33:58.819Z,0.49
2023-02-19T21:39:00.102Z,0.44
2023-02-19T21:44:01.238Z,0.42
2023-02-19T21:49:03.414Z,0.46
2023-02-19T21:54:05.567Z,0.48
2023-02-19T21:59:06.887Z,0.45
2023-02-19T22:04:09.345Z,0.40
2023-02-19T22:09:11.346Z,0.37
2023-02-19T22:14:13.676Z,0.35
2023-02-19T22:19:14.776Z,0.33
2023-02-19T22:24:16.846Z,0.32
2023-02-19T22:29:18.023Z,0.25
2023-02-19T22:34:19.122Z,0.22
2023-02-19T22:39:21.961Z,0.15
2023-02-19T22:44:23.083Z,0.08
2023-02-19T22:49:24.489Z,0.02
2023-02-19T22:54:26.489Z,-0.04
2023-02-19T22:59:27.893Z,-0.08
2023-02-19T23:04:29.013Z,-0.06
2023-02-19T23:09:30.321Z,-0.03
2023-02-19T23:14:31.535Z,-0.02
2023-02-19T23:19:33.026Z,-0.02
2023-02-19T23:24:34.236Z,0.02
2023-02-19T23:29:35.365Z,0.08
2023-02-19T23:34:36.506Z,0.13
2023-02-19T23:39:37.566Z,0.16
2023-02-19T23:44:38.635Z,0.18
2023-02-19T23:49:40.375Z,0.21
2023-02-19T23:54:41.513Z,0.21
2023-02-19T23:59:44.137Z,0.19
